THT weather

Tamchakett Airport
Tamchakett, Hodh el Charbi Region, Mauritania

Public forecast

Using degrees Celsius for public forecast. Weather courtesy of forecast.io.

METAR (pilot weather report)

Closest report is Nioro du Sahel Airport, 139.5 nm (258.4 km) SSE. Retrieved 2019/09/19 03:00 UTC (26 minutes ago):

GANR 190300Z 22002KT CAVOK 27/24 Q1012

TAF (pilot weather forecast)

Forecast is more than 12 hours old.

Closest forecast is Nouakchott International Airport, 298.1 nm (552.1 km) W. Retrieved 2016/06/26 18:52 UTC (3 years ago):

TAF GQNN 261700Z 2618/2800 28010KT 6000 NSC BECMG 2619/2621 BKN008 PROB40 TEMPO 2704/2708 4000 BR BECMG 2709/2711 FEW010